createdAt,value
2019-05-17T00:00:39.087Z,6.33
2019-05-17T00:03:07.004Z,4.53
2019-05-17T00:05:37.292Z,4.80
2019-05-17T00:08:04.082Z,4.40
2019-05-17T00:10:30.969Z,4.70
2019-05-17T00:12:57.552Z,4.20
2019-05-17T00:15:24.162Z,4.73
2019-05-17T00:17:52.207Z,5.23
2019-05-17T00:20:18.987Z,4.30
2019-05-17T00:22:48.852Z,4.57
2019-05-17T00:25:16.804Z,4.30
2019-05-17T00:27:43.747Z,5.03
2019-05-17T00:30:11.530Z,5.20
2019-05-17T00:32:39.424Z,5.30
2019-05-17T00:35:08.344Z,5.43
2019-05-17T00:37:37.365Z,5.37
2019-05-17T00:40:07.414Z,5.37
2019-05-17T00:42:34.357Z,5.43
2019-05-17T00:45:01.538Z,5.40
2019-05-17T00:47:28.205Z,5.97
2019-05-17T00:49:56.984Z,5.50
2019-05-17T00:52:24.043Z,5.80
2019-05-17T00:54:51.046Z,5.37
2019-05-17T00:57:18.637Z,5.07
2019-05-17T00:59:47.380Z,5.00
2019-05-17T01:03:10.402Z,5.50
2019-05-17T01:05:37.201Z,5.10
2019-05-17T01:08:06.919Z,5.03
2019-05-17T01:10:33.189Z,5.23
2019-05-17T01:13:00.343Z,5.23
2019-05-17T01:15:28.079Z,4.77
2019-05-17T01:17:56.289Z,5.30
2019-05-17T01:20:23.435Z,5.13
2019-05-17T01:22:52.890Z,5.23
2019-05-17T01:25:20.114Z,5.13
2019-05-17T01:27:47.619Z,4.90
2019-05-17T01:30:18.435Z,5.37
2019-05-17T01:32:46.425Z,4.93
2019-05-17T01:35:16.488Z,5.73
2019-05-17T01:37:42.825Z,5.50
2019-05-17T01:40:10.449Z,5.50
2019-05-17T01:42:39.334Z,5.37
2019-05-17T01:45:08.212Z,5.17
2019-05-17T01:47:36.879Z,5.00
2019-05-17T01:50:08.026Z,4.27
2019-05-17T01:52:36.764Z,4.33
2019-05-17T01:55:06.680Z,4.47
2019-05-17T01:57:33.891Z,4.63
2019-05-17T02:00:00.684Z,3.97
2019-05-17T02:02:29.449Z,4.93
2019-05-17T02:04:56.944Z,4.83
2019-05-17T02:07:23.718Z,4.77
2019-05-17T02:09:50.660Z,4.33
2019-05-17T02:12:17.645Z,4.83
2019-05-17T02:14:46.754Z,5.40
2019-05-17T02:17:17.285Z,6.07
2019-05-17T02:19:43.467Z,4.83
2019-05-17T02:22:10.133Z,5.60
2019-05-17T02:24:37.844Z,5.07
2019-05-17T02:27:04.640Z,5.60
2019-05-17T02:29:32.189Z,5.93
2019-05-17T02:31:59.528Z,6.37
2019-05-17T02:34:27.673Z,5.50
2019-05-17T02:36:54.946Z,5.47
2019-05-17T02:39:23.274Z,5.17
2019-05-17T02:41:53.334Z,5.47
2019-05-17T02:44:23.306Z,5.90
2019-05-17T02:46:49.010Z,6.23
2019-05-17T02:49:16.077Z,6.47
2019-05-17T02:51:43.217Z,5.67
2019-05-17T02:54:13.010Z,4.93
2019-05-17T02:56:38.499Z,5.47
2019-05-17T02:59:05.509Z,5.40
2019-05-17T03:01:33.152Z,5.57
2019-05-17T03:04:03.558Z,5.57
2019-05-17T03:06:32.703Z,5.00
2019-05-17T03:08:58.569Z,5.40
2019-05-17T03:11:25.643Z,5.77
2019-05-17T03:13:52.719Z,5.00
2019-05-17T03:16:23.405Z,4.97
2019-05-17T03:18:48.277Z,5.70
2019-05-17T03:21:15.755Z,5.17
2019-05-17T03:23:43.522Z,5.13
2019-05-17T03:26:13.313Z,5.80
2019-05-17T03:28:42.654Z,6.00
2019-05-17T03:31:17.021Z,5.20
2019-05-17T03:33:45.950Z,5.20
2019-05-17T03:36:16.871Z,5.30
2019-05-17T03:38:43.133Z,4.97
2019-05-17T03:41:22.973Z,5.23
2019-05-17T03:43:41.232Z,4.47
2019-05-17T03:46:07.212Z,5.00
2019-05-17T03:48:34.095Z,4.93
2019-05-17T03:51:02.660Z,5.43
2019-05-17T03:53:33.137Z,5.03
2019-05-17T03:56:02.643Z,5.03
2019-05-17T03:58:33.035Z,5.17
2019-05-17T04:00:58.986Z,4.60
2019-05-17T04:03:31.001Z,5.27
2019-05-17T04:05:59.326Z,4.83
2019-05-17T04:08:26.385Z,4.60
2019-05-17T04:10:55.735Z,5.20
2019-05-17T04:13:24.594Z,5.47
2019-05-17T04:15:53.651Z,5.57
2019-05-17T04:18:23.565Z,4.87
2019-05-17T04:20:52.771Z,5.20
2019-05-17T04:23:23.235Z,4.50
2019-05-17T04:25:53.372Z,5.20
2019-05-17T04:28:22.956Z,5.50
2019-05-17T04:30:52.785Z,5.47
2019-05-17T04:33:23.222Z,5.40
2019-05-17T04:35:53.793Z,5.07
2019-05-17T04:38:19.044Z,5.67
2019-05-17T04:40:45.603Z,5.27
2019-05-17T04:43:13.849Z,5.80
2019-05-17T04:45:42.618Z,5.70
2019-05-17T04:48:12.840Z,5.70
2019-05-17T04:50:38.334Z,5.83
2019-05-17T04:53:06.375Z,5.70
2019-05-17T04:55:34.114Z,5.67
2019-05-17T04:58:03.855Z,5.70
2019-05-17T05:00:34.160Z,5.40
2019-05-17T05:03:03.846Z,5.03
2019-05-17T05:05:32.780Z,4.40
2019-05-17T05:07:58.535Z,5.47
2019-05-17T05:10:26.342Z,4.87
2019-05-17T05:12:54.178Z,4.67
2019-05-17T05:15:26.559Z,5.20
2019-05-17T05:17:54.724Z,5.57
2019-05-17T05:20:22.122Z,5.77
2019-05-17T05:22:52.660Z,5.67
2019-05-17T05:25:21.570Z,6.23
2019-05-17T05:27:47.788Z,5.97
2019-05-17T05:30:14.657Z,6.53
2019-05-17T05:32:42.670Z,6.03
2019-05-17T05:35:12.379Z,7.17
2019-05-17T05:37:42.291Z,6.77
2019-05-17T05:40:12.324Z,6.70
2019-05-17T05:42:38.112Z,6.77
2019-05-17T05:45:05.278Z,7.00
2019-05-17T05:47:32.486Z,6.67
2019-05-17T05:50:01.723Z,6.27
2019-05-17T05:52:28.372Z,6.80
2019-05-17T05:54:54.987Z,7.20
2019-05-17T05:57:22.030Z,5.97
2019-05-17T05:59:51.668Z,6.33
2019-05-17T06:02:21.681Z,6.67
2019-05-17T06:04:48.941Z,6.90
2019-05-17T06:07:15.864Z,6.93
2019-05-17T06:09:43.707Z,6.63
2019-05-17T06:12:23.380Z,5.90
2019-05-17T06:14:41.716Z,5.77
2019-05-17T06:17:12.463Z,6.47
2019-05-17T06:19:39.065Z,5.97
2019-05-17T06:22:05.778Z,5.53
2019-05-17T06:24:32.918Z,6.17
2019-05-17T06:27:01.859Z,5.90
2019-05-17T06:29:32.591Z,5.93
2019-05-17T06:31:59.006Z,5.53
2019-05-17T06:34:25.996Z,5.47
2019-05-17T06:36:53.520Z,5.37
2019-05-17T06:39:22.446Z,4.60
2019-05-17T06:41:51.812Z,4.60
2019-05-17T06:44:21.479Z,4.67
2019-05-17T06:46:47.825Z,4.83
2019-05-17T06:49:14.490Z,4.10
2019-05-17T06:51:42.562Z,3.90
2019-05-17T06:54:12.263Z,3.93
2019-05-17T06:56:41.642Z,3.57
2019-05-17T06:59:08.041Z,4.03
2019-05-17T07:01:35.762Z,3.50
2019-05-17T07:04:02.554Z,4.07
2019-05-17T07:06:31.436Z,3.53
2019-05-17T07:08:58.055Z,3.73
2019-05-17T07:11:26.223Z,3.60
2019-05-17T07:13:52.787Z,3.63
2019-05-17T07:16:20.603Z,2.90
2019-05-17T07:18:49.402Z,3.47
2019-05-17T07:21:20.545Z,3.70
2019-05-17T07:23:49.866Z,3.50
2019-05-17T07:26:19.568Z,3.10
2019-05-17T07:28:49.774Z,3.77
2019-05-17T07:31:19.110Z,3.83
2019-05-17T07:33:46.693Z,3.47
2019-05-17T07:36:14.580Z,4.03
2019-05-17T07:38:41.326Z,3.57
2019-05-17T07:41:10.065Z,3.47
2019-05-17T07:43:36.823Z,3.20
2019-05-17T07:46:03.573Z,3.33
2019-05-17T07:48:32.486Z,4.33
2019-05-17T07:50:59.620Z,2.93
2019-05-17T07:53:27.600Z,3.33
2019-05-17T07:55:59.713Z,3.10
2019-05-17T07:58:26.923Z,2.70
2019-05-17T08:00:54.040Z,2.77
2019-05-17T08:03:24.278Z,3.10
2019-05-17T08:05:51.598Z,2.63
2019-05-17T08:08:20.838Z,2.97
2019-05-17T08:10:51.039Z,3.60
2019-05-17T08:13:29.908Z,3.77
2019-05-17T08:15:54.127Z,3.43
2019-05-17T08:18:21.022Z,3.57
2019-05-17T08:20:49.985Z,3.93
2019-05-17T08:23:16.657Z,4.23
2019-05-17T08:25:52.751Z,4.00
2019-05-17T08:28:12.220Z,4.40
2019-05-17T08:30:41.478Z,4.30
2019-05-17T08:33:11.317Z,4.23
2019-05-17T08:35:40.045Z,5.00
2019-05-17T08:38:09.978Z,4.70
2019-05-17T08:40:36.203Z,5.23
2019-05-17T08:43:05.812Z,4.43
2019-05-17T08:45:35.663Z,4.73
2019-05-17T08:48:04.315Z,4.10
2019-05-17T08:50:32.579Z,5.13
2019-05-17T08:53:00.535Z,5.20
2019-05-17T08:55:29.768Z,5.83
2019-05-17T08:57:56.176Z,5.30
2019-05-17T09:00:26.889Z,5.00
2019-05-17T09:02:54.882Z,5.33
2019-05-17T09:05:22.008Z,5.53
2019-05-17T09:07:49.336Z,5.60
2019-05-17T09:10:17.002Z,5.67
2019-05-17T09:12:44.590Z,4.83
2019-05-17T09:15:12.433Z,5.67
2019-05-17T09:17:41.208Z,5.57
2019-05-17T09:20:10.717Z,6.03
2019-05-17T09:22:39.634Z,4.97
2019-05-17T09:25:11.004Z,5.90
2019-05-17T09:27:36.593Z,5.80
2019-05-17T09:30:05.935Z,5.03
2019-05-17T09:32:34.187Z,5.40
2019-05-17T09:35:01.044Z,5.67
2019-05-17T09:37:30.335Z,5.47
2019-05-17T09:39:56.767Z,5.27
2019-05-17T09:42:23.459Z,5.30
2019-05-17T09:44:50.823Z,5.47
2019-05-17T09:47:17.693Z,5.37
2019-05-17T09:49:45.476Z,4.70
2019-05-17T09:52:14.665Z,4.70
2019-05-17T09:54:45.060Z,5.47
2019-05-17T09:57:10.863Z,5.43
2019-05-17T09:59:37.829Z,5.30
2019-05-17T10:02:06.950Z,4.80
2019-05-17T10:04:34.320Z,4.90
2019-05-17T10:07:01.866Z,5.00
2019-05-17T10:09:28.752Z,4.57
2019-05-17T10:11:56.633Z,5.13
2019-05-17T10:14:27.683Z,4.87
2019-05-17T10:16:52.211Z,5.23
2019-05-17T10:19:23.392Z,4.47
2019-05-17T10:21:50.211Z,5.20
2019-05-17T10:24:17.024Z,5.17
2019-05-17T10:26:43.953Z,4.60
2019-05-17T10:29:10.725Z,4.20
2019-05-17T10:31:39.712Z,4.40
2019-05-17T10:34:09.455Z,4.73
2019-05-17T10:36:40.298Z,4.50
2019-05-17T10:39:09.779Z,4.07
2019-05-17T10:42:32.328Z,3.77
2019-05-17T10:45:00.305Z,4.10
2019-05-17T10:47:27.265Z,4.77
2019-05-17T10:49:54.126Z,4.00
2019-05-17T10:52:21.398Z,3.33
2019-05-17T10:54:49.773Z,3.70
2019-05-17T10:57:16.577Z,3.20
2019-05-17T10:59:43.452Z,3.50
2019-05-17T11:02:12.779Z,3.63
2019-05-17T11:04:40.279Z,3.40
2019-05-17T11:07:11.139Z,3.70
2019-05-17T11:09:40.242Z,3.60
2019-05-17T11:12:08.082Z,3.63
2019-05-17T11:14:50.298Z,3.90
2019-05-17T11:17:05.560Z,3.63
2019-05-17T11:19:32.250Z,4.10
2019-05-17T11:22:00.063Z,4.20
2019-05-17T11:24:26.762Z,3.90
2019-05-17T11:26:53.879Z,3.73
2019-05-17T11:29:22.721Z,3.60
2019-05-17T11:31:49.963Z,3.80
2019-05-17T11:34:16.930Z,3.90
2019-05-17T11:36:43.845Z,4.13
2019-05-17T11:39:11.539Z,4.57
2019-05-17T11:41:38.212Z,3.63
2019-05-17T11:44:05.388Z,3.93
2019-05-17T11:46:36.527Z,3.67
2019-05-17T11:49:02.819Z,4.20
2019-05-17T11:51:29.597Z,4.77
2019-05-17T11:53:57.324Z,3.63
2019-05-17T11:56:24.111Z,4.27
2019-05-17T11:58:50.910Z,4.10
2019-05-17T12:01:18.263Z,3.90
2019-05-17T12:03:45.071Z,3.93
2019-05-17T12:06:11.954Z,4.23
2019-05-17T12:08:38.769Z,4.43
2019-05-17T12:11:06.847Z,3.97
2019-05-17T12:13:35.698Z,4.10
2019-05-17T12:16:04.030Z,3.97
2019-05-17T12:18:31.025Z,3.90
2019-05-17T12:20:59.057Z,3.53
2019-05-17T12:23:25.805Z,3.90
2019-05-17T12:25:53.550Z,3.30
2019-05-17T12:28:21.603Z,3.23
2019-05-17T12:30:48.389Z,3.60
2019-05-17T12:33:16.122Z,4.07
2019-05-17T12:35:42.981Z,3.50
2019-05-17T12:38:09.985Z,3.70
2019-05-17T12:40:37.870Z,3.63
2019-05-17T12:43:04.643Z,3.80
2019-05-17T12:45:31.803Z,3.70
2019-05-17T12:47:58.865Z,3.50
2019-05-17T12:50:25.938Z,3.60
2019-05-17T12:52:53.682Z,3.67
2019-05-17T12:55:20.772Z,3.83
2019-05-17T12:58:43.933Z,3.63
2019-05-17T13:01:11.575Z,3.80
2019-05-17T13:03:39.669Z,4.33
2019-05-17T13:06:06.495Z,3.90
2019-05-17T13:08:34.122Z,3.73
2019-05-17T13:11:01.724Z,4.10
2019-05-17T13:13:28.930Z,4.17
2019-05-17T13:15:55.754Z,4.30
2019-05-17T13:18:23.472Z,4.27
2019-05-17T13:20:50.637Z,2.97
2019-05-17T13:23:19.563Z,2.30
2019-05-17T13:25:48.761Z,2.40
2019-05-17T13:28:15.927Z,2.17
2019-05-17T13:30:43.647Z,1.80
2019-05-17T13:33:10.740Z,2.00
2019-05-17T13:35:38.793Z,1.80
2019-05-17T13:38:05.483Z,1.53
2019-05-17T13:40:39.287Z,2.03
2019-05-17T13:43:01.019Z,1.57
2019-05-17T13:45:27.940Z,1.80
2019-05-17T13:47:55.785Z,2.20
2019-05-17T13:50:23.185Z,1.60
2019-05-17T13:52:50.327Z,1.67
2019-05-17T13:55:20.859Z,2.37
2019-05-17T13:57:48.648Z,1.93
2019-05-17T14:00:18.982Z,1.97
2019-05-17T14:02:46.916Z,2.07
2019-05-17T14:05:14.317Z,2.10
2019-05-17T14:07:41.132Z,2.40
2019-05-17T14:10:24.484Z,2.40
2019-05-17T14:12:39.851Z,2.40
2019-05-17T14:15:08.434Z,2.50
2019-05-17T14:17:35.223Z,2.30
2019-05-17T14:20:04.023Z,2.30
2019-05-17T14:22:31.065Z,2.67
2019-05-17T14:24:58.808Z,2.47
2019-05-17T14:27:26.129Z,2.60
2019-05-17T14:29:52.798Z,2.47
2019-05-17T14:32:20.584Z,2.57
2019-05-17T14:34:49.781Z,2.20
2019-05-17T14:37:16.688Z,2.50
2019-05-17T14:39:43.290Z,2.90
2019-05-17T14:42:10.720Z,2.70
2019-05-17T14:44:38.882Z,3.00
2019-05-17T14:47:05.882Z,2.73
2019-05-17T14:49:32.687Z,2.87
2019-05-17T14:51:59.743Z,3.33
2019-05-17T14:54:28.515Z,2.80
2019-05-17T14:56:56.191Z,3.17
2019-05-17T14:59:22.951Z,2.80
2019-05-17T15:01:50.874Z,3.07
2019-05-17T15:04:20.181Z,3.03
2019-05-17T15:06:47.890Z,1.73
2019-05-17T15:09:14.694Z,2.10
2019-05-17T15:12:38.575Z,2.30
2019-05-17T15:15:06.950Z,2.33
2019-05-17T15:17:35.188Z,2.50
2019-05-17T15:20:05.455Z,2.80
2019-05-17T15:22:33.173Z,2.70
2019-05-17T15:25:01.374Z,2.40
2019-05-17T15:27:29.659Z,2.50
2019-05-17T15:29:56.437Z,2.90
2019-05-17T15:32:23.580Z,2.67
2019-05-17T15:34:51.484Z,3.30
2019-05-17T15:37:18.469Z,2.40
2019-05-17T15:39:45.080Z,2.93
2019-05-17T15:42:12.876Z,3.23
2019-05-17T15:44:39.578Z,2.70
2019-05-17T15:47:08.354Z,2.43
2019-05-17T15:49:35.669Z,2.30
2019-05-17T15:52:02.756Z,3.17
2019-05-17T15:54:29.357Z,2.73
2019-05-17T15:56:55.998Z,3.10
2019-05-17T15:59:22.807Z,2.63
2019-05-17T16:01:49.591Z,2.90
2019-05-17T16:04:16.793Z,2.40
2019-05-17T16:06:46.083Z,3.10
2019-05-17T16:09:12.795Z,2.83
2019-05-17T16:11:39.669Z,2.57
2019-05-17T16:14:06.565Z,2.57
2019-05-17T16:16:33.632Z,2.60
2019-05-17T16:19:01.586Z,2.43
2019-05-17T16:21:28.361Z,2.80
2019-05-17T16:23:56.347Z,3.00
2019-05-17T16:26:23.993Z,2.90
2019-05-17T16:28:51.085Z,2.73
2019-05-17T16:31:18.238Z,2.53
2019-05-17T16:33:45.508Z,3.27
2019-05-17T16:36:13.374Z,3.37
2019-05-17T16:38:39.989Z,2.87
2019-05-17T16:41:15.400Z,2.80
2019-05-17T16:43:42.347Z,3.07
2019-05-17T16:46:09.974Z,2.80
2019-05-17T16:48:37.005Z,3.23
2019-05-17T16:51:04.253Z,2.70
2019-05-17T16:53:32.236Z,3.13
2019-05-17T16:55:59.227Z,2.87
2019-05-17T16:58:25.998Z,3.50
2019-05-17T17:00:57.955Z,3.23
2019-05-17T17:03:24.776Z,3.20
2019-05-17T17:05:51.556Z,2.97
2019-05-17T17:08:18.559Z,3.57
2019-05-17T17:10:45.647Z,3.53
2019-05-17T17:13:13.746Z,3.00
2019-05-17T17:15:43.505Z,3.40
2019-05-17T17:18:10.424Z,3.60
2019-05-17T17:20:37.705Z,3.57
2019-05-17T17:23:04.536Z,3.63
2019-05-17T17:25:31.839Z,3.60
2019-05-17T17:28:00.499Z,3.80
2019-05-17T17:30:29.941Z,3.40
2019-05-17T17:32:57.890Z,3.47
2019-05-17T17:35:25.754Z,3.83
2019-05-17T17:37:52.448Z,3.23
2019-05-17T17:40:22.092Z,4.80
2019-05-17T17:42:49.205Z,3.93
2019-05-17T17:45:20.547Z,4.00
2019-05-17T17:47:49.692Z,4.27
2019-05-17T17:50:17.059Z,4.10
2019-05-17T17:52:49.525Z,4.70
2019-05-17T17:55:17.800Z,4.50
2019-05-17T17:57:44.904Z,4.73
2019-05-17T18:00:13.220Z,4.27
2019-05-17T18:02:41.180Z,4.60
2019-05-17T18:05:08.389Z,4.30
2019-05-17T18:07:35.293Z,5.07
2019-05-17T18:10:05.520Z,5.53
2019-05-17T18:12:34.188Z,4.30
2019-05-17T18:15:06.319Z,4.80
2019-05-17T18:17:39.064Z,5.30
2019-05-17T18:20:00.249Z,6.07
2019-05-17T18:22:28.087Z,6.90
2019-05-17T18:24:54.830Z,8.43
2019-05-17T18:27:23.004Z,7.23
2019-05-17T18:29:49.753Z,8.33
2019-05-17T18:32:16.515Z,9.27
2019-05-17T18:34:43.609Z,9.53
2019-05-17T18:37:12.957Z,10.00
2019-05-17T18:39:43.061Z,9.53
2019-05-17T18:42:09.905Z,14.00
2019-05-17T18:44:36.981Z,15.30
2019-05-17T18:47:09.427Z,16.60
2019-05-17T18:49:37.275Z,14.63
2019-05-17T18:52:05.487Z,16.40
2019-05-17T18:54:33.234Z,13.40
2019-05-17T18:57:00.054Z,13.80
2019-05-17T18:59:27.087Z,12.23
2019-05-17T19:01:53.875Z,10.37
2019-05-17T19:04:20.931Z,11.07
2019-05-17T19:06:48.589Z,10.33
2019-05-17T19:09:15.618Z,10.77
2019-05-17T19:11:42.501Z,10.57
2019-05-17T19:14:09.179Z,10.33
2019-05-17T19:17:33.601Z,10.47
2019-05-17T19:20:00.351Z,10.03
2019-05-17T19:22:27.516Z,12.73
2019-05-17T19:24:55.560Z,12.97
2019-05-17T19:27:23.412Z,11.87
2019-05-17T19:29:50.453Z,13.63
2019-05-17T19:32:18.538Z,11.80
2019-05-17T19:34:46.253Z,12.17
2019-05-17T19:37:14.042Z,11.90
2019-05-17T19:39:41.391Z,12.53
2019-05-17T19:42:08.647Z,11.33
2019-05-17T19:44:36.036Z,10.80
2019-05-17T19:47:04.484Z,11.30
2019-05-17T19:49:31.381Z,11.20
2019-05-17T19:51:58.116Z,10.37
2019-05-17T19:54:24.983Z,12.07
2019-05-17T19:56:54.121Z,14.53
2019-05-17T19:59:25.088Z,12.03
2019-05-17T20:02:06.509Z,9.03
2019-05-17T20:04:55.073Z,9.43
2019-05-17T20:07:38.606Z,9.07
2019-05-17T20:10:19.613Z,8.23
2019-05-17T20:13:00.619Z,7.97
2019-05-17T20:15:43.150Z,7.70
2019-05-17T20:18:28.509Z,8.93
2019-05-17T20:20:57.705Z,8.20
2019-05-17T20:23:25.551Z,8.73
2019-05-17T20:25:54.066Z,9.07
2019-05-17T20:28:20.938Z,8.93
2019-05-17T20:30:48.689Z,8.93
2019-05-17T20:33:16.023Z,9.93
2019-05-17T20:35:44.092Z,9.13
2019-05-17T20:38:11.190Z,10.77
2019-05-17T20:40:39.185Z,10.57
2019-05-17T20:43:07.811Z,11.27
2019-05-17T20:45:35.205Z,11.47
2019-05-17T20:48:01.996Z,11.23
2019-05-17T20:50:28.893Z,11.73
2019-05-17T20:52:55.635Z,13.00
2019-05-17T20:55:22.370Z,12.37
2019-05-17T20:57:49.011Z,13.07
2019-05-17T21:01:13.503Z,12.57
2019-05-17T21:03:40.630Z,12.77
2019-05-17T21:06:07.608Z,12.90
2019-05-17T21:08:45.540Z,12.10
2019-05-17T21:11:04.652Z,13.23
2019-05-17T21:13:31.966Z,13.60
2019-05-17T21:15:59.695Z,13.97
2019-05-17T21:18:28.010Z,13.90
2019-05-17T21:20:54.592Z,13.37
2019-05-17T21:23:24.013Z,12.10
2019-05-17T21:25:51.074Z,11.63
2019-05-17T21:28:19.083Z,12.20
2019-05-17T21:30:49.085Z,11.57
2019-05-17T21:33:16.738Z,11.37
2019-05-17T21:35:45.438Z,11.87
2019-05-17T21:38:12.336Z,11.73
2019-05-17T21:40:39.121Z,11.57
2019-05-17T21:43:05.848Z,11.40
2019-05-17T21:45:32.517Z,11.67
2019-05-17T21:48:01.435Z,11.03
2019-05-17T21:50:33.132Z,12.63
2019-05-17T21:52:59.728Z,11.60
2019-05-17T21:55:26.545Z,12.40
2019-05-17T21:57:53.371Z,13.20
2019-05-17T22:00:27.894Z,13.00
2019-05-17T22:02:56.439Z,12.60
2019-05-17T22:05:23.107Z,12.03
2019-05-17T22:07:49.729Z,11.97
2019-05-17T22:10:16.581Z,12.53
2019-05-17T22:12:46.900Z,13.33
2019-05-17T22:15:16.029Z,12.20
2019-05-17T22:17:42.714Z,12.10
2019-05-17T22:20:09.796Z,12.27
2019-05-17T22:22:36.748Z,11.67
2019-05-17T22:25:06.133Z,12.40
2019-05-17T22:27:33.994Z,11.77
2019-05-17T22:30:00.977Z,11.47
2019-05-17T22:32:28.007Z,12.10
2019-05-17T22:34:54.684Z,12.37
2019-05-17T22:37:21.533Z,12.27
2019-05-17T22:39:49.416Z,11.80
2019-05-17T22:42:16.572Z,11.80
2019-05-17T22:44:43.499Z,10.80
2019-05-17T22:47:10.312Z,11.83
2019-05-17T22:49:36.929Z,12.03
2019-05-17T22:52:03.773Z,12.37
2019-05-17T22:54:31.142Z,12.17
2019-05-17T22:56:57.943Z,12.47
2019-05-17T22:59:24.935Z,11.70
2019-05-17T23:01:52.778Z,12.60
2019-05-17T23:04:19.872Z,11.43
2019-05-17T23:06:46.594Z,12.87
2019-05-17T23:09:13.227Z,12.97
2019-05-17T23:11:39.949Z,12.63
2019-05-17T23:14:06.774Z,12.83
2019-05-17T23:16:50.248Z,13.53
2019-05-17T23:19:05.881Z,13.07
2019-05-17T23:21:33.225Z,12.83
2019-05-17T23:23:59.837Z,11.87
2019-05-17T23:26:26.634Z,11.60
2019-05-17T23:28:54.572Z,12.47
2019-05-17T23:31:21.574Z,12.37
2019-05-17T23:33:48.429Z,11.37
2019-05-17T23:36:15.546Z,11.77
2019-05-17T23:38:43.373Z,11.93
2019-05-17T23:41:11.548Z,11.50
2019-05-17T23:43:39.630Z,11.13
2019-05-17T23:46:06.614Z,12.57
2019-05-17T23:48:33.425Z,11.33
2019-05-17T23:51:00.033Z,11.33
2019-05-17T23:53:27.173Z,10.90
2019-05-17T23:55:55.103Z,12.13
2019-05-17T23:58:21.694Z,12.63
